Time;durP1;ratioP1;P1;durP2;ratioP2;P2;SDS_P1;SDS_P2;PMS_P1;PMS_P2;Temp;Humidity;BMP_temperature;BMP_pressure;BME280_temperature;BME280_humidity;BME280_pressure;Samples;Min_cycle;Max_cycle;Signal;HPM_P1;HPM_P2
2021/01/02 04:02:16;;;;;;;19.05;12.95;;;;;;;3.95;100.00;100615.88;1727822;77;21199;-60
2021/01/02 04:04:46;;;;;;;20.08;13.20;;;;;;;3.99;100.00;100615.95;1752819;80;21457;-60
2021/01/02 04:07:14;;;;;;;20.15;13.60;;;;;;;4.03;100.00;100626.83;1778318;79;21583;-60
2021/01/02 04:09:44;;;;;;;18.70;13.15;;;;;;;4.05;100.00;100627.05;1787947;80;21599;-60
2021/01/02 04:12:12;;;;;;;18.60;12.30;;;;;;;4.08;100.00;100629.34;1723211;80;22085;-60
2021/01/02 04:14:40;;;;;;;17.82;12.60;;;;;;;4.10;100.00;100627.46;1763128;81;21490;-60
2021/01/02 04:17:09;;;;;;;15.85;10.68;;;;;;;4.12;100.00;100626.84;1763937;79;22217;-60
2021/01/02 04:19:37;;;;;;;17.95;11.93;;;;;;;4.14;100.00;100632.70;1795679;79;20938;-60
2021/01/02 04:22:05;;;;;;;16.05;11.38;;;;;;;4.15;100.00;100636.90;1777680;79;21120;-60
2021/01/02 04:24:34;;;;;;;18.42;13.32;;;;;;;4.17;100.00;100643.69;1762914;80;21148;-60
2021/01/02 04:27:04;;;;;;;15.80;10.55;;;;;;;4.17;100.00;100649.69;1761866;79;21211;-59
2021/01/02 04:29:32;;;;;;;16.60;11.57;;;;;;;4.18;100.00;100650.50;1752199;80;22104;-59
2021/01/02 04:32:01;;;;;;;15.35;10.43;;;;;;;4.19;100.00;100650.83;1768964;79;21507;-60
2021/01/02 04:34:29;;;;;;;15.93;10.90;;;;;;;4.20;100.00;100665.36;1759583;79;21215;-61
2021/01/02 04:36:58;;;;;;;14.10;10.70;;;;;;;4.19;100.00;100663.26;1767138;79;21558;-58
2021/01/02 04:39:26;;;;;;;18.87;11.93;;;;;;;4.19;100.00;100663.73;1772928;79;21526;-59
2021/01/02 04:41:58;;;;;;;16.48;10.40;;;;;;;4.18;100.00;100660.34;1769495;79;22379;-59
2021/01/02 04:44:27;;;;;;;;;;;;;;;4.18;100.00;100665.50;1786622;79;20942;-59
2021/01/02 04:46:55;;;;;;;16.10;9.88;;;;;;;4.19;100.00;100661.16;1795426;79;20514;-59
2021/01/02 04:49:23;;;;;;;16.30;10.30;;;;;;;4.20;100.00;100662.78;1795673;79;20994;-58
2021/01/02 04:52:03;;;;;;;17.95;11.15;;;;;;;4.19;100.00;100669.70;1793550;79;21482;-59
2021/01/02 04:54:32;;;;;;;15.70;9.98;;;;;;;4.20;100.00;100666.65;1746467;79;21439;-59
2021/01/02 04:57:00;;;;;;;16.42;10.80;;;;;;;4.22;100.00;100675.09;1745001;79;21010;-59
2021/01/02 04:59:30;;;;;;;16.07;10.43;;;;;;;4.23;100.00;100680.58;1794849;79;21061;-62
2021/01/02 05:01:59;;;;;;;22.15;12.37;;;;;;;4.22;100.00;100677.67;1775021;79;21137;-60
2021/01/02 05:04:28;;;;;;;14.58;10.43;;;;;;;4.22;100.00;100678.96;1774812;79;21215;-59
2021/01/02 05:06:56;;;;;;;20.82;11.28;;;;;;;4.21;100.00;100680.73;1791934;79;21716;-58
2021/01/02 05:09:27;;;;;;;18.70;11.10;;;;;;;4.21;100.00;100686.36;1756649;80;20915;-60
2021/01/02 05:11:56;;;;;;;19.20;10.85;;;;;;;4.20;100.00;100688.58;1754706;79;20982;-61
2021/01/02 05:14:24;;;;;;;15.20;10.70;;;;;;;4.20;100.00;100686.00;1766875;79;21363;-59
2021/01/02 05:16:54;;;;;;;13.83;9.83;;;;;;;4.22;100.00;100693.15;1794763;79;21221;-59
2021/01/02 05:19:23;;;;;;;13.20;8.70;;;;;;;4.23;100.00;100693.48;1753843;79;21379;-60
2021/01/02 05:21:53;;;;;;;13.70;9.28;;;;;;;4.26;100.00;100699.68;1751355;80;21610;-61
2021/01/02 05:24:21;;;;;;;13.38;9.53;;;;;;;4.27;100.00;100701.30;1762506;79;22512;-59
2021/01/02 05:27:00;;;;;;;14.05;10.10;;;;;;;4.30;100.00;100711.37;1794685;79;21207;-61
2021/01/02 05:29:29;;;;;;;12.35;8.83;;;;;;;4.31;100.00;100710.41;1784357;79;20957;-61
2021/01/02 05:32:01;;;;;;;12.53;8.70;;;;;;;4.33;100.00;100713.70;1745741;79;22767;-59
2021/01/02 05:34:31;;;;;;;13.05;8.15;;;;;;;4.34;100.00;100716.61;1774930;79;20942;-59
2021/01/02 05:37:08;;;;;;;13.53;9.00;;;;;;;4.35;100.00;100723.40;1760202;79;20908;-60
2021/01/02 05:39:43;;;;;;;13.48;9.38;;;;;;;4.37;100.00;100727.49;1764576;79;21645;-61
2021/01/02 05:42:11;;;;;;;14.05;8.53;;;;;;;4.35;100.00;100725.98;1761359;79;21131;-60
2021/01/02 05:44:40;;;;;;;19.27;11.50;;;;;;;4.34;100.00;100726.45;1763221;79;21055;-59
2021/01/02 05:47:13;;;;;;;22.22;12.93;;;;;;;4.33;100.00;100726.13;1790412;79;21064;-60
2021/01/02 05:49:47;;;;;;;33.23;21.12;;;;;;;4.31;100.00;100723.31;1745532;81;21689;-60
2021/01/02 05:52:15;;;;;;;18.27;11.25;;;;;;;4.29;100.00;100724.75;1791628;79;21558;-59
2021/01/02 05:54:49;;;;;;;13.48;9.23;;;;;;;4.30;100.00;100730.25;1769907;79;21128;-59
2021/01/02 05:57:27;;;;;;;13.35;8.28;;;;;;;4.32;100.00;100736.59;1737912;79;21749;-61
2021/01/02 05:59:58;;;;;;;14.45;10.40;;;;;;;4.32;100.00;100739.98;1700430;83;21547;-59
2021/01/02 06:02:31;;;;;;;;;;;;;;;4.33;100.00;100744.66;1738875;79;20965;-59
2021/01/02 06:05:03;;;;;;;14.20;9.80;;;;;;;4.34;100.00;100749.69;1743041;80;20221;-61
2021/01/02 06:07:36;;;;;;;13.15;9.18;;;;;;;4.34;100.00;100748.39;1776102;80;21519;-60
2021/01/02 06:10:08;;;;;;;14.73;9.13;;;;;;;4.35;100.00;100759.53;1772094;80;22301;-60
2021/01/02 06:12:41;;;;;;;12.65;8.95;;;;;;;4.36;100.00;100761.19;1749553;80;20970;-60
2021/01/02 06:15:13;;;;;;;14.15;10.25;;;;;;;4.39;100.00;100771.23;1716313;81;21497;-60
2021/01/02 06:17:42;;;;;;;12.70;8.60;;;;;;;4.40;100.00;100771.59;1782855;79;21135;-60
2021/01/02 06:20:15;;;;;;;12.35;8.18;;;;;;;4.42;100.00;100783.06;1796227;79;21613;-59
2021/01/02 06:22:44;;;;;;;13.85;8.98;;;;;;;4.43;100.00;100792.44;1749370;79;22115;-62
2021/01/02 06:25:13;;;;;;;12.30;8.58;;;;;;;4.43;100.00;100801.47;1744877;79;21108;-61
2021/01/02 06:27:44;;;;;;;15.38;9.30;;;;;;;4.43;100.00;100801.47;1775165;79;21085;-59
2021/01/02 06:30:18;;;;;;;14.35;9.65;;;;;;;4.42;100.00;100804.53;1786238;79;20939;-59
2021/01/02 06:32:47;;;;;;;15.28;9.55;;;;;;;4.43;100.00;100813.90;1793631;79;21092;-62
2021/01/02 06:35:18;;;;;;;13.38;9.00;;;;;;;4.43;100.00;100810.50;1794089;79;22812;-60
2021/01/02 06:38:01;;;;;;;14.00;9.00;;;;;;;4.42;100.00;100818.72;1758625;79;22303;-60
2021/01/02 06:40:47;;;;;;;15.63;10.20;;;;;;;4.42;100.00;100819.20;1789137;79;21042;-62
2021/01/02 06:43:21;;;;;;;12.30;8.50;;;;;;;4.42;100.00;100821.78;1747807;79;22105;-62
2021/01/02 06:45:57;;;;;;;15.50;10.08;;;;;;;4.42;100.00;100817.44;1750133;79;21089;-60
2021/01/02 06:48:32;;;;;;;15.68;9.93;;;;;;;4.45;100.00;100826.22;1754673;79;21382;-62
2021/01/02 06:51:03;;;;;;;15.83;10.38;;;;;;;4.45;100.00;100831.38;1756216;79;21085;-62
2021/01/02 06:53:34;;;;;;;13.00;9.38;;;;;;;4.45;100.00;100831.38;1759762;79;20964;-61
2021/01/02 06:56:07;;;;;;;13.90;9.00;;;;;;;4.45;100.00;100836.54;1748758;79;21188;-61
2021/01/02 06:58:46;;;;;;;13.88;9.93;;;;;;;4.44;100.00;100834.91;1741976;79;21244;-61
2021/01/02 07:01:25;;;;;;;16.40;10.78;;;;;;;4.44;100.00;100838.78;1750526;79;22267;-63
2021/01/02 07:03:54;;;;;;;16.45;11.50;;;;;;;4.44;100.00;100847.01;1747746;79;21514;-61
2021/01/02 07:06:24;;;;;;;17.57;11.65;;;;;;;4.44;100.00;100844.42;1748466;79;21144;-61
2021/01/02 07:08:59;;;;;;;16.40;12.07;;;;;;;4.44;100.00;100843.95;1737107;79;21188;-62
2021/01/02 07:11:47;;;;;;;18.55;12.98;;;;;;;4.46;100.00;100848.97;1744874;79;22252;-63
2021/01/02 07:14:21;;;;;;;16.37;11.55;;;;;;;4.49;100.00;100853.88;1745563;79;21154;-61
2021/01/02 07:17:05;;;;;;;17.05;13.10;;;;;;;4.51;100.00;100859.72;1746191;79;21116;-61
2021/01/02 07:19:40;;;;;;;20.02;13.30;;;;;;;4.52;100.00;100860.90;1748464;79;21260;-63
2021/01/02 07:22:20;;;;;;;18.40;12.75;;;;;;;4.53;100.00;100874.14;1741864;79;21139;-60
2021/01/02 07:25:03;;;;;;;19.05;13.03;;;;;;;4.55;100.00;100874.84;1744915;79;21041;-62
2021/01/02 07:27:35;;;;;;;18.42;13.05;;;;;;;4.58;100.00;100883.63;1744695;79;22366;-62
2021/01/02 07:30:10;;;;;;;19.60;14.55;;;;;;;4.59;100.00;100885.27;1754046;79;21180;-61
2021/01/02 07:32:43;;;;;;;22.30;13.62;;;;;;;4.61;100.00;100891.58;1755592;79;21077;-62
2021/01/02 07:35:15;;;;;;;19.25;13.80;;;;;;;4.63;100.00;100895.67;1743728;79;21001;-63
2021/01/02 07:37:45;;;;;;;22.37;15.27;;;;;;;4.67;100.00;100901.40;1742013;79;21938;-62
2021/01/02 07:40:16;;;;;;;20.73;13.50;;;;;;;4.70;100.00;100901.59;1741120;79;21367;-63
2021/01/02 07:42:51;;;;;;;24.67;14.87;;;;;;;4.72;100.00;100902.30;1745035;79;21489;-62
2021/01/02 07:45:22;;;;;;;20.80;14.28;;;;;;;4.76;100.00;100907.55;1767778;79;20997;-62
2021/01/02 07:47:58;;;;;;;23.18;14.98;;;;;;;4.79;100.00;100911.17;1774259;79;21575;-61
2021/01/02 07:50:31;;;;;;;23.73;15.03;;;;;;;4.80;100.00;100913.61;1757345;78;21069;-62
2021/01/02 07:53:00;;;;;;;21.57;14.03;;;;;;;4.79;100.00;100913.28;1766143;79;22104;-62
2021/01/02 07:55:31;;;;;;;22.27;14.53;;;;;;;4.78;100.00;100916.00;1769492;78;21616;-62
2021/01/02 07:58:00;;;;;;;21.52;14.40;;;;;;;4.79;100.00;100926.67;1755934;79;21187;-63
2021/01/02 08:00:28;;;;;;;22.67;14.87;;;;;;;4.77;100.00;100925.52;1758880;79;21235;-63
2021/01/02 08:03:06;;;;;;;19.95;13.83;;;;;;;4.76;100.00;100928.20;1759098;79;21207;-62
2021/01/02 08:05:34;;;;;;;22.35;15.25;;;;;;;4.73;100.00;100930.56;1732877;80;21338;-64
2021/01/02 08:08:06;;;;;;;22.40;14.00;;;;;;;4.73;100.00;100942.66;1759228;79;21285;-64
2021/01/02 08:10:35;;;;;;;27.35;16.10;;;;;;;4.73;100.00;100941.38;1753126;80;21362;-64
2021/01/02 08:13:06;;;;;;;25.17;15.68;;;;;;;4.72;100.00;100947.50;1762126;79;21124;-65
2021/01/02 08:15:37;;;;;;;26.70;17.02;;;;;;;4.71;100.00;100945.39;1733290;80;21121;-64
2021/01/02 08:18:07;;;;;;;27.75;17.55;;;;;;;4.70;100.00;100951.95;1768890;79;21240;-62
2021/01/02 08:20:39;;;;;;;29.63;17.65;;;;;;;4.69;100.00;100954.20;1750565;79;21072;-63
2021/01/02 08:23:14;;;;;;;26.87;15.75;;;;;;;4.68;100.00;100963.72;1754654;79;21072;-64
2021/01/02 08:25:43;;;;;;;24.47;16.62;;;;;;;4.70;100.00;100964.87;1761194;79;21218;-63
2021/01/02 08:28:13;;;;;;;27.93;16.50;;;;;;;4.70;100.00;100963.58;1765022;79;21167;-62
2021/01/02 08:30:42;;;;;;;24.30;16.35;;;;;;;4.70;100.00;100962.28;1738532;79;21739;-63
2021/01/02 08:33:11;;;;;;;27.03;17.63;;;;;;;4.72;100.00;100968.16;1745793;79;21159;-64
2021/01/02 08:35:43;;;;;;;28.20;16.90;;;;;;;4.73;100.00;100969.30;1722496;79;21465;-64
2021/01/02 08:38:13;;;;;;;27.47;16.13;;;;;;;4.75;100.00;100973.89;1757959;79;21910;-64
2021/01/02 08:40:44;;;;;;;30.00;17.40;;;;;;;4.77;100.00;100975.03;1767431;79;21706;-61
2021/01/02 08:43:25;;;;;;;28.38;17.62;;;;;;;4.79;100.00;100980.91;1755266;79;21440;-64
2021/01/02 08:46:09;;;;;;;25.55;16.60;;;;;;;4.83;100.00;100984.88;1757551;79;21025;-61
2021/01/02 08:48:45;;;;;;;;;;;;;;;4.87;100.00;100994.00;1731023;81;21033;-61
2021/01/02 08:51:26;;;;;;;24.12;14.18;;;;;;;4.90;100.00;100999.39;1728160;80;20553;-61
2021/01/02 08:53:54;;;;;;;23.73;13.18;;;;;;;4.87;100.00;101003.04;1742511;80;21134;-62
2021/01/02 08:56:27;;;;;;;21.87;12.85;;;;;;;4.84;100.00;101002.00;1759461;80;22284;-65
2021/01/02 08:58:57;;;;;;;17.30;11.27;;;;;;;4.81;100.00;101004.83;1749300;80;21108;-62
2021/01/02 09:01:31;;;;;;;21.82;12.90;;;;;;;4.79;100.00;101013.19;1765087;80;26760;-63
2021/01/02 09:04:11;;;;;;;18.02;11.53;;;;;;;4.77;100.00;101017.66;1745716;80;21096;-62
2021/01/02 09:06:41;;;;;;;18.20;11.08;;;;;;;4.75;100.00;101020.85;1737074;80;21251;-62
2021/01/02 09:09:11;;;;;;;19.48;12.03;;;;;;;4.74;100.00;101016.64;1750797;80;21219;-62
2021/01/02 09:11:48;;;;;;;17.67;11.10;;;;;;;4.72;100.00;101019.80;1721938;81;21159;-61
2021/01/02 09:14:18;;;;;;;19.77;12.28;;;;;;;4.73;100.00;101019.67;1716101;82;21261;-63
2021/01/02 09:17:02;;;;;;;18.13;11.67;;;;;;;4.78;100.00;101020.61;1746054;80;22279;-62
2021/01/02 09:19:30;;;;;;;19.52;13.15;;;;;;;4.84;100.00;101020.89;1750313;80;21870;-63
2021/01/02 09:21:58;;;;;;;18.30;12.20;;;;;;;4.90;100.00;101029.91;1748276;80;22180;-64
2021/01/02 09:24:29;;;;;;;;;;;;;;;4.96;100.00;101030.68;1751791;80;22112;-62
2021/01/02 09:26:58;;;;;;;20.70;14.57;;;;;;;5.02;100.00;101025.49;1744087;80;20217;-62
2021/01/02 09:29:27;;;;;;;18.17;12.25;;;;;;;5.05;100.00;101031.22;1718430;80;21266;-61
2021/01/02 09:31:56;;;;;;;16.27;11.80;;;;;;;5.07;100.00;101036.25;1717874;82;21006;-66
2021/01/02 09:34:25;;;;;;;22.27;15.93;;;;;;;5.08;100.00;101046.48;1750923;80;21542;-63
2021/01/02 09:36:53;;;;;;;17.80;12.33;;;;;;;5.07;100.00;101049.17;1715326;83;21428;-62
2021/01/02 09:39:24;;;;;;;18.03;12.03;;;;;;;5.03;100.00;101050.37;1724195;81;21323;-62
2021/01/02 09:41:53;;;;;;;14.93;10.65;;;;;;;4.98;100.00;101054.64;1746389;80;21657;-63
2021/01/02 09:44:21;;;;;;;15.63;10.60;;;;;;;4.90;100.00;101059.63;1756596;79;21065;-60
2021/01/02 09:46:51;;;;;;;19.43;12.90;;;;;;;4.82;100.00;101071.06;1746170;80;21473;-60
2021/01/02 09:49:20;;;;;;;20.27;12.90;;;;;;;4.75;100.00;101071.22;1746608;80;21331;-61
2021/01/02 09:51:49;;;;;;;23.05;16.73;;;;;;;4.68;100.00;101068.30;1717252;81;21366;-61
2021/01/02 09:54:18;;;;;;;19.93;12.63;;;;;;;4.61;100.00;101076.20;1713035;83;20987;-62
2021/01/02 09:56:47;;;;;;;19.17;12.43;;;;;;;4.54;100.00;101077.16;1714508;83;21469;-61
2021/01/02 09:59:16;;;;;;;18.83;13.93;;;;;;;4.48;100.00;101080.73;1755586;80;21683;-61
2021/01/02 10:01:44;;;;;;;25.57;15.55;;;;;;;4.44;100.00;101082.73;1738538;80;21697;-61
2021/01/02 10:04:13;;;;;;;20.05;13.40;;;;;;;4.41;100.00;101084.27;1754606;80;21072;-64
2021/01/02 10:06:45;;;;;;;16.57;11.78;;;;;;;4.38;100.00;101089.19;1751749;79;21055;-61
2021/01/02 10:09:13;;;;;;;19.40;11.97;;;;;;;4.34;100.00;101090.85;1749517;80;21164;-62
2021/01/02 10:11:43;;;;;;;17.27;11.95;;;;;;;4.32;100.00;101094.05;1781310;80;21546;-61
2021/01/02 10:14:12;;;;;;;15.15;10.72;;;;;;;4.33;100.00;101107.29;1753558;80;21087;-65
2021/01/02 10:16:40;;;;;;;14.73;10.48;;;;;;;4.37;100.00;101109.97;1754942;80;21574;-61
2021/01/02 10:19:09;;;;;;;14.47;10.40;;;;;;;4.41;100.00;101109.27;1763497;79;21088;-61
2021/01/02 10:21:38;;;;;;;15.72;10.15;;;;;;;4.46;100.00;101110.52;1758988;79;21111;-60
2021/01/02 10:24:08;;;;;;;13.38;9.58;;;;;;;4.51;100.00;101106.27;1755655;79;22673;-60
2021/01/02 10:26:36;;;;;;;15.10;9.45;;;;;;;4.53;100.00;101106.52;1735867;80;21236;-61
2021/01/02 10:29:04;;;;;;;13.37;9.20;;;;;;;4.58;100.00;101111.30;1761501;80;21111;-60
2021/01/02 10:31:33;;;;;;;14.40;9.65;;;;;;;4.63;100.00;101115.64;1763519;79;21564;-62
2021/01/02 10:34:02;;;;;;;13.53;9.08;;;;;;;4.67;100.00;101120.09;1764877;80;21085;-64
2021/01/02 10:36:31;;;;;;;13.88;9.85;;;;;;;4.71;100.00;101118.90;1756162;79;21785;-60
2021/01/02 10:38:59;;;;;;;13.78;10.28;;;;;;;4.76;100.00;101120.63;1751280;80;21030;-60
2021/01/02 10:41:28;;;;;;;13.38;10.20;;;;;;;4.79;100.00;101122.97;1760087;80;21459;-61
2021/01/02 10:43:57;;;;;;;12.68;8.95;;;;;;;4.84;100.00;101129.39;1762395;80;21610;-61
2021/01/02 10:46:27;;;;;;;13.20;10.10;;;;;;;4.90;100.00;101130.67;1759443;80;21029;-63
2021/01/02 10:48:55;;;;;;;10.80;8.67;;;;;;;4.96;100.00;101124.17;1760073;80;21826;-61
2021/01/02 10:51:25;;;;;;;10.70;8.40;;;;;;;5.03;100.00;101120.96;1758534;80;21420;-59
2021/01/02 10:53:53;;;;;;;13.17;8.63;;;;;;;5.12;100.00;101127.16;1759307;80;22325;-60
2021/01/02 10:56:22;;;;;;;11.40;8.23;;;;;;;5.18;100.00;101125.34;1758049;80;21343;-63
2021/01/02 10:58:50;;;;;;;10.40;8.63;;;;;;;5.20;100.00;101130.41;1760813;80;21449;-60
2021/01/02 11:01:20;;;;;;;10.43;7.53;;;;;;;5.23;100.00;101129.68;1768270;80;22344;-61
2021/01/02 11:03:48;;;;;;;10.00;8.03;;;;;;;5.24;100.00;101127.44;1757471;79;21343;-60
2021/01/02 11:06:18;;;;;;;10.10;8.07;;;;;;;5.27;100.00;101132.35;1751865;79;21823;-63
2021/01/02 11:08:47;;;;;;;12.53;8.37;;;;;;;5.29;100.00;101133.51;1757210;79;22459;-61
2021/01/02 11:11:20;;;;;;;8.50;6.53;;;;;;;5.28;100.00;101140.45;1763310;79;21981;-61
2021/01/02 11:13:48;;;;;;;8.60;6.43;;;;;;;5.26;100.00;101138.92;1747991;79;21374;-60
2021/01/02 11:16:16;;;;;;;9.43;7.47;;;;;;;5.26;100.00;101143.62;1764727;79;21304;-63
2021/01/02 11:18:45;;;;;;;9.17;6.97;;;;;;;5.28;100.00;101149.97;1770318;79;21365;-61
2021/01/02 11:21:13;;;;;;;9.43;7.03;;;;;;;5.27;100.00;101153.52;1769207;79;21873;-61
2021/01/02 11:23:42;;;;;;;8.83;7.50;;;;;;;5.25;100.00;101156.69;1760314;79;21391;-60
2021/01/02 11:26:11;;;;;;;15.77;14.23;;;;;;;5.24;100.00;101164.91;1767052;79;22274;-63
2021/01/02 11:28:39;;;;;;;24.80;22.43;;;;;;;5.20;100.00;101164.81;1780726;79;22518;-62
2021/01/02 11:31:07;;;;;;;36.90;33.33;;;;;;;5.15;100.00;101170.00;1757694;79;21810;-61
2021/01/02 11:33:36;;;;;;;12.83;11.53;;;;;;;5.09;100.00;101173.45;1761960;79;21823;-62
2021/01/02 11:36:05;;;;;;;11.57;9.60;;;;;;;5.07;100.00;101182.25;1772530;79;21513;-62
2021/01/02 11:38:33;;;;;;;11.90;10.60;;;;;;;5.02;100.00;101184.41;1773798;79;21456;-62
2021/01/02 11:41:02;;;;;;;11.03;9.83;;;;;;;4.98;100.00;101186.89;1769961;79;21250;-61
2021/01/02 11:43:31;;;;;;;9.17;7.03;;;;;;;4.94;100.00;101185.02;1769534;79;21795;-60
2021/01/02 11:45:59;;;;;;;7.67;6.43;;;;;;;4.91;100.00;101187.03;1767134;79;21812;-62
2021/01/02 11:48:29;;;;;;;6.83;5.30;;;;;;;4.87;100.00;101195.50;1760914;79;21283;-62
2021/01/02 11:50:58;;;;;;;7.03;5.47;;;;;;;4.82;100.00;101201.52;1773584;79;21717;-61
2021/01/02 11:53:26;;;;;;;10.00;7.40;;;;;;;4.77;100.00;101195.43;1775557;79;21212;-62
2021/01/02 11:55:54;;;;;;;8.33;6.97;;;;;;;4.71;100.00;101202.36;1766505;79;21348;-63
2021/01/02 11:58:22;;;;;;;7.77;5.67;;;;;;;4.68;100.00;101205.66;1780075;79;21540;-67
2021/01/02 12:00:51;;;;;;;10.23;8.65;;;;;;;4.64;100.00;101203.78;1760654;79;21758;-63
2021/01/02 12:03:20;;;;;;;10.55;8.40;;;;;;;4.61;100.00;101211.30;1760997;79;22466;-62
2021/01/02 12:05:48;;;;;;;10.45;8.63;;;;;;;4.56;100.00;101212.61;1757782;79;21126;-61
2021/01/02 12:08:16;;;;;;;9.30;6.78;;;;;;;4.51;100.00;101216.84;1769282;79;21606;-63
2021/01/02 12:10:45;;;;;;;8.53;6.72;;;;;;;4.47;100.00;101216.73;1757619;81;21219;-61
2021/01/02 12:13:14;;;;;;;11.35;9.75;;;;;;;4.44;100.00;101222.61;1767882;79;21179;-62
2021/01/02 12:15:43;;;;;;;10.38;8.18;;;;;;;4.41;100.00;101230.59;1739194;80;21394;-61
2021/01/02 12:18:11;;;;;;;10.82;7.17;;;;;;;4.37;100.00;101235.98;1710002;81;21090;-61
2021/01/02 12:20:40;;;;;;;9.85;7.10;;;;;;;4.35;100.00;101243.48;1756937;81;21096;-62
2021/01/02 12:23:08;;;;;;;9.80;7.53;;;;;;;4.34;100.00;101243.14;1751554;79;21128;-61
2021/01/02 12:25:37;;;;;;;9.03;7.37;;;;;;;4.33;100.00;101242.80;1757235;80;21072;-63
2021/01/02 12:28:05;;;;;;;8.98;6.62;;;;;;;4.31;100.00;101246.77;1754584;81;22657;-65
2021/01/02 12:30:34;;;;;;;10.15;6.47;;;;;;;4.27;100.00;101244.08;1742461;79;21180;-61
2021/01/02 12:33:04;;;;;;;9.65;7.12;;;;;;;4.23;100.00;101252.17;1744352;80;21235;-61
2021/01/02 12:35:33;;;;;;;9.90;7.33;;;;;;;4.20;100.00;101247.24;1742234;80;21087;-61
2021/01/02 12:38:01;;;;;;;9.75;7.37;;;;;;;4.14;100.00;101248.08;1748616;80;21061;-61
2021/01/02 12:40:30;;;;;;;12.58;10.40;;;;;;;4.12;100.00;101255.09;1737759;80;21206;-63
2021/01/02 12:42:59;;;;;;;22.30;19.98;;;;;;;4.08;100.00;101251.11;1732820;80;21219;-60
2021/01/02 12:45:30;;;;;;;9.23;7.10;;;;;;;4.07;100.00;101268.00;1732056;80;21196;-63
2021/01/02 12:47:59;;;;;;;9.93;8.15;;;;;;;4.05;100.00;101269.87;1726828;80;21262;-62
2021/01/02 12:50:29;;;;;;;11.65;9.50;;;;;;;4.04;100.00;101275.50;1727343;80;21191;-63
2021/01/02 12:52:57;;;;;;;14.23;10.58;;;;;;;4.04;100.00;101274.68;1726328;79;21555;-63
2021/01/02 12:55:26;;;;;;;8.88;6.87;;;;;;;4.01;100.00;101283.94;1728100;80;21171;-61
2021/01/02 12:57:56;;;;;;;10.18;7.17;;;;;;;3.99;100.00;101286.64;1735825;80;21137;-62
2021/01/02 13:00:25;;;;;;;8.70;6.60;;;;;;;3.95;100.00;101289.10;1732800;80;21270;-63
2021/01/02 13:02:54;;;;;;;8.60;6.50;;;;;;;3.92;100.00;101293.20;1728110;80;21215;-62
2021/01/02 13:05:23;;;;;;;9.43;7.17;;;;;;;3.88;100.00;101298.23;1737629;80;21207;-62
2021/01/02 13:07:51;;;;;;;11.33;8.63;;;;;;;3.83;100.00;101299.87;1724622;80;21192;-63
2021/01/02 13:10:22;;;;;;;10.18;8.10;;;;;;;3.80;100.00;101310.41;1743018;79;21085;-64
2021/01/02 13:12:51;;;;;;;9.75;7.62;;;;;;;3.78;100.00;101310.15;1741911;80;21061;-62
2021/01/02 13:15:20;;;;;;;7.65;6.60;;;;;;;3.75;100.00;101309.08;1748460;80;21026;-61
2021/01/02 13:17:48;;;;;;;9.85;7.58;;;;;;;3.71;100.00;101307.66;1750579;80;21190;-62
2021/01/02 13:20:19;;;;;;;9.83;8.68;;;;;;;3.68;100.00;101311.31;1743592;79;21143;-63
2021/01/02 13:22:48;;;;;;;15.28;12.90;;;;;;;3.65;100.00;101317.98;1746496;79;21203;-61
2021/01/02 13:25:17;;;;;;;10.03;8.13;;;;;;;3.64;100.00;101318.92;1747635;79;21551;-62
2021/01/02 13:27:46;;;;;;;8.93;6.65;;;;;;;3.61;100.00;101323.00;1749462;80;21210;-61
2021/01/02 13:30:16;;;;;;;8.38;5.95;;;;;;;3.58;100.00;101324.04;1746376;80;22324;-64
2021/01/02 13:32:45;;;;;;;7.85;6.10;;;;;;;3.54;100.00;101330.35;1748041;80;22225;-61
2021/01/02 13:35:15;;;;;;;8.53;6.30;;;;;;;3.52;100.00;101330.91;1741540;80;21179;-63
2021/01/02 13:37:44;;;;;;;8.28;6.42;;;;;;;3.49;100.00;101337.61;1745758;79;21155;-63
2021/01/02 13:40:12;;;;;;;9.03;7.30;;;;;;;3.44;100.00;101339.67;1750808;79;20986;-64
2021/01/02 13:42:41;;;;;;;9.68;7.42;;;;;;;3.39;100.00;101345.16;1747928;79;21203;-61
2021/01/02 13:45:10;;;;;;;8.18;6.65;;;;;;;3.35;100.00;101350.66;1746644;80;21002;-63
2021/01/02 13:47:39;;;;;;;7.37;5.65;;;;;;;3.31;100.00;101355.67;1746563;80;21136;-61
2021/01/02 13:50:08;;;;;;;11.78;7.85;;;;;;;3.27;100.00;101364.55;1747111;80;21150;-64
2021/01/02 13:52:36;;;;;;;8.03;6.03;;;;;;;3.22;100.00;101365.31;1746652;80;22059;-62
2021/01/02 13:55:05;;;;;;;9.78;7.33;;;;;;;3.17;100.00;101369.52;1757746;80;21199;-61
2021/01/02 13:57:33;;;;;;;9.10;6.87;;;;;;;3.14;100.00;101378.30;1751162;80;21612;-63
2021/01/02 14:00:03;;;;;;;8.90;6.95;;;;;;;3.11;100.00;101379.80;1746779;80;21009;-61
2021/01/02 14:02:33;;;;;;;7.20;5.28;;;;;;;3.11;100.00;101386.23;1745999;80;21214;-60
2021/01/02 14:05:03;;;;;;;9.53;7.78;;;;;;;3.11;100.00;101383.66;1745379;80;21243;-61
2021/01/02 14:07:31;;;;;;;12.35;7.30;;;;;;;3.09;100.00;101393.23;1756391;79;21567;-61
2021/01/02 14:10:00;;;;;;;7.10;5.50;;;;;;;3.07;100.00;101397.69;1759262;80;21499;-61
2021/01/02 14:12:28;;;;;;;7.78;5.20;;;;;;;3.04;100.00;101401.76;1746364;80;20954;-62
2021/01/02 14:14:57;;;;;;;7.90;5.42;;;;;;;3.02;100.00;101401.50;1751134;80;21122;-61
2021/01/02 14:17:26;;;;;;;7.70;6.45;;;;;;;3.01;100.00;101410.98;1722981;81;21145;-62
2021/01/02 14:19:55;;;;;;;7.47;5.67;;;;;;;3.00;100.00;101414.49;1746804;80;22791;-61
2021/01/02 14:22:24;;;;;;;7.10;5.45;;;;;;;2.99;100.00;101412.82;1729418;81;21477;-61
2021/01/02 14:24:57;;;;;;;8.68;5.87;;;;;;;2.98;100.00;101421.48;1746580;81;20994;-62
2021/01/02 14:27:26;;;;;;;8.50;6.50;;;;;;;2.96;100.00;101429.80;1758536;79;21124;-62
2021/01/02 14:29:54;;;;;;;9.05;6.87;;;;;;;2.92;100.00;101427.89;1758903;79;21144;-62
2021/01/02 14:32:23;;;;;;;9.05;6.60;;;;;;;2.90;100.00;101430.20;1754934;80;21198;-64
2021/01/02 14:34:51;;;;;;;8.83;5.65;;;;;;;2.88;100.00;101429.50;1717420;81;20976;-62
2021/01/02 14:37:20;;;;;;;10.30;7.35;;;;;;;2.87;100.00;101435.56;1758645;80;21005;-61
2021/01/02 14:39:49;;;;;;;10.10;6.53;;;;;;;2.87;100.00;101439.42;1758430;80;21029;-63
2021/01/02 14:42:18;;;;;;;10.00;7.05;;;;;;;2.86;100.00;101448.91;1758188;80;21022;-61
2021/01/02 14:44:46;;;;;;;11.48;6.95;;;;;;;2.84;100.00;101448.20;1757159;80;22708;-63
2021/01/02 14:47:15;;;;;;;8.28;6.40;;;;;;;2.85;100.00;101452.88;1758139;80;21235;-63
2021/01/02 14:49:43;;;;;;;9.75;6.37;;;;;;;2.86;100.00;101459.67;1751273;80;20926;-63
2021/01/02 14:52:12;;;;;;;9.15;7.08;;;;;;;2.84;100.00;101459.79;1758174;80;21531;-61
2021/01/02 14:54:42;;;;;;;14.38;12.80;;;;;;;2.83;100.00;101461.16;1757791;81;21219;-62
2021/01/02 14:57:10;;;;;;;12.75;9.60;;;;;;;2.82;100.00;101465.95;1749098;80;22185;-62
2021/01/02 14:59:44;;;;;;;11.70;9.88;;;;;;;2.81;100.00;101463.03;1730055;81;21018;-61
2021/01/02 15:02:13;;;;;;;14.58;13.05;;;;;;;2.79;100.00;101469.55;1741406;80;21160;-59
2021/01/02 15:04:42;;;;;;;11.20;8.55;;;;;;;2.77;100.00;101475.28;1733860;80;21144;-61
2021/01/02 15:07:12;;;;;;;8.23;6.30;;;;;;;2.75;100.00;101474.55;1728884;79;21081;-61
2021/01/02 15:09:41;;;;;;;7.75;5.75;;;;;;;2.72;100.00;101479.89;1738991;79;21209;-64
2021/01/02 15:12:10;;;;;;;6.53;5.05;;;;;;;2.70;100.00;101480.48;1732370;79;21223;-62
2021/01/02 15:14:39;;;;;;;6.87;5.42;;;;;;;2.70;100.00;101484.81;1723663;80;21613;-61
2021/01/02 15:17:07;;;;;;;5.80;4.83;;;;;;;2.66;100.00;101488.86;1722231;79;21231;-60
2021/01/02 15:19:37;;;;;;;6.30;4.55;;;;;;;2.67;100.00;101499.52;1730182;79;21156;-61
2021/01/02 15:22:06;;;;;;;6.42;4.90;;;;;;;2.66;100.00;101499.16;1724464;79;22001;-62
2021/01/02 15:24:38;;;;;;;6.42;4.80;;;;;;;2.67;100.00;101505.13;1723842;79;21138;-63
2021/01/02 15:27:07;;;;;;;6.42;5.05;;;;;;;2.66;100.00;101506.06;1737126;80;22304;-61
2021/01/02 15:29:35;;;;;;;5.50;4.80;;;;;;;2.64;100.00;101506.14;1738193;80;21168;-61
2021/01/02 15:32:05;;;;;;;5.75;4.40;;;;;;;2.64;100.00;101507.90;1745075;80;21077;-61